Time;durP1;ratioP1;P1;durP2;ratioP2;P2;SDS_P1;SDS_P2;PMS_P1;PMS_P2;Temp;Humidity;BMP_temperature;BMP_pressure;BME280_temperature;BME280_humidity;BME280_pressure;Samples;Min_cycle;Max_cycle;Signal;HPM_P1;HPM_P2
2021/11/12 00:16:25;;;;;;;100.70;57.77;;;;;;;4.23;100.00;101066.19;21056742;27;20325;-56
2021/11/12 00:26:28;;;;;;;86.40;52.73;;;;;;;4.44;100.00;101078.84;21056581;27;20236;-57
2021/11/12 00:36:38;;;;;;;84.43;51.23;;;;;;;4.49;100.00;101073.41;21055746;27;20300;-58
2021/11/12 00:46:47;;;;;;;108.23;59.53;;;;;;;4.51;100.00;101076.91;21054875;27;20257;-58
2021/11/12 01:26:45;;;;;;;99.67;52.60;;;;;;;4.66;100.00;101071.19;21010982;27;20563;-65
2021/11/12 01:36:49;;;;;;;96.50;50.70;;;;;;;4.71;100.00;101062.22;21057043;27;20565;-61
2021/11/12 01:56:58;;;;;;;106.23;49.07;;;;;;;4.80;100.00;101065.53;21231758;27;20576;-65
2021/11/12 02:07:02;;;;;;;104.70;48.63;;;;;;;4.78;100.00;101075.28;21227116;27;20299;-57
2021/11/12 02:17:11;;;;;;;147.20;56.80;;;;;;;4.82;100.00;101076.94;21225970;27;20253;-59
2021/11/12 02:27:17;;;;;;;128.43;57.07;;;;;;;4.79;100.00;101098.16;21224374;27;20235;-64
2021/11/12 02:37:22;;;;;;;131.87;54.13;;;;;;;4.84;100.00;101085.66;21224666;27;20229;-66
2021/11/12 02:57:29;;;;;;;122.70;50.10;;;;;;;4.97;100.00;101089.69;21039450;27;20567;-56
2021/11/12 03:07:32;;;;;;;117.30;49.23;;;;;;;5.04;100.00;101093.91;21057808;27;20300;-57
2021/11/12 03:27:36;;;;;;;117.70;47.70;;;;;;;5.14;100.00;101098.00;21078973;27;20620;-56
2021/11/12 04:18:31;;;;;;;123.73;43.60;;;;;;;5.42;100.00;101121.88;21220821;27;20221;-68
2021/11/12 04:49:54;;;;;;;111.87;47.53;;;;;;;5.89;100.00;101127.50;21069668;27;20588;-58
2021/11/12 05:10:37;;;;;;;118.43;44.57;;;;;;;5.71;100.00;101134.19;21056719;27;20230;-59
2021/11/12 06:01:41;;;;;;;97.80;36.07;;;;;;;5.89;100.00;101160.16;21226406;27;20610;-59
2021/11/12 06:11:46;;;;;;;109.37;41.13;;;;;;;5.96;100.00;101188.19;21226045;27;20603;-66
2021/11/12 06:31:48;;;;;;;95.50;37.23;;;;;;;6.08;100.00;101203.69;21060948;27;20615;-66
2021/11/12 06:51:52;;;;;;;102.27;39.03;;;;;;;6.28;100.00;101211.00;21060598;27;20626;-65
2021/11/12 07:01:55;;;;;;;90.53;37.67;;;;;;;6.44;100.00;101219.31;21056604;28;20224;-65
2021/11/12 07:21:57;;;;;;;87.03;36.93;;;;;;;6.65;100.00;101215.94;21059664;27;20564;-65
2021/11/12 07:32:01;;;;;;;80.03;36.83;;;;;;;6.84;100.00;101218.84;21057814;28;20255;-66
2021/11/12 07:42:10;;;;;;;90.90;38.80;;;;;;;6.88;100.00;101223.97;21055663;28;20250;-66
2021/11/12 07:52:15;;;;;;;80.63;37.27;;;;;;;7.01;100.00;101208.50;21056386;28;20319;-60
2021/11/12 08:02:18;;;;;;;70.83;33.60;;;;;;;7.38;100.00;101228.41;21054398;28;20233;-61
2021/11/12 08:12:24;;;;;;;55.37;29.23;;;;;;;7.79;100.00;101234.84;21054770;28;20597;-56
2021/11/12 08:22:31;;;;;;;54.00;30.20;;;;;;;8.21;100.00;101227.84;21053880;28;20252;-55
2021/11/12 08:32:54;;;;;;;49.33;28.27;;;;;;;8.51;100.00;101220.47;21001287;28;20220;-55
2021/11/12 08:43:10;;;;;;;49.97;29.37;;;;;;;8.80;100.00;101221.91;20995441;28;20230;-55
2021/11/12 08:53:15;;;;;;;51.00;32.43;;;;;;;8.85;100.00;101225.22;20995847;28;20262;-66
2021/11/12 09:03:19;;;;;;;49.03;30.97;;;;;;;8.82;100.00;101217.34;20993951;28;20230;-64
2021/11/12 09:13:24;;;;;;;37.00;26.23;;;;;;;9.15;100.00;101232.84;20976600;28;20235;-66
2021/11/12 09:23:27;;;;;;;38.63;26.80;;;;;;;9.53;100.00;101236.47;20993840;28;20214;-56
2021/11/12 09:33:31;;;;;;;38.13;26.17;;;;;;;9.51;100.00;101225.88;20993022;28;20244;-55
2021/11/12 09:43:35;;;;;;;35.87;25.70;;;;;;;9.51;100.00;101215.22;20991003;28;20237;-54
2021/11/12 09:53:40;;;;;;;30.43;24.00;;;;;;;9.75;100.00;101213.22;20991110;28;20231;-56
2021/11/12 10:03:47;;;;;;;35.10;26.43;;;;;;;9.66;100.00;101214.47;20988962;28;20226;-55
2021/11/12 10:13:59;;;;;;;37.83;27.47;;;;;;;9.27;100.00;101216.31;20988708;28;20225;-55
2021/11/12 10:24:26;;;;;;;36.63;24.30;;;;;;;9.27;100.00;101208.31;20988913;28;20310;-56
2021/11/12 10:34:36;;;;;;;35.90;24.27;;;;;;;9.40;100.00;101204.19;20986854;28;20219;-58
2021/11/12 10:44:49;;;;;;;35.20;24.70;;;;;;;9.54;100.00;101198.22;20987605;28;20218;-55
2021/11/12 10:54:57;;;;;;;39.37;26.10;;;;;;;9.24;100.00;101195.13;20987022;28;20242;-57
2021/11/12 11:05:08;;;;;;;35.67;23.83;;;;;;;9.20;100.00;101182.88;20985546;28;20219;-56
2021/11/12 11:15:16;;;;;;;37.93;25.40;;;;;;;9.52;100.00;101170.78;20984563;28;20628;-55
2021/11/12 11:25:19;;;;;;;35.50;27.00;;;;;;;9.63;100.00;101174.66;20984889;28;20275;-61
2021/11/12 11:35:24;;;;;;;32.87;23.13;;;;;;;9.71;100.00;101171.63;20985427;28;20234;-58
2021/11/12 11:45:27;;;;;;;36.03;26.37;;;;;;;9.65;100.00;101159.47;20985146;28;20305;-65
2021/11/12 11:55:32;;;;;;;32.97;24.47;;;;;;;10.10;100.00;101144.88;20984458;28;20258;-58
2021/11/12 12:06:07;;;;;;;26.90;22.53;;;;;;;10.20;100.00;101146.16;20995124;28;20225;-56
2021/11/12 12:16:10;;;;;;;30.33;23.80;;;;;;;10.13;100.00;101147.38;20998767;28;20234;-59
2021/11/12 13:28:37;;;;;;;37.00;26.33;;;;;;;9.64;100.00;101108.91;20943470;28;20223;-55
2021/11/12 13:38:50;;;;;;;31.87;23.63;;;;;;;9.44;100.00;101117.81;20992907;28;20226;-54
2021/11/12 13:48:56;;;;;;;27.20;21.67;;;;;;;9.36;100.00;101120.00;20991900;28;20222;-58
2021/11/12 13:59:13;;;;;;;32.10;22.83;;;;;;;9.20;100.00;101119.81;21022880;28;20222;-63
2021/11/12 14:09:21;;;;;;;29.60;21.50;;;;;;;9.12;100.00;101137.09;20920305;28;20223;-65
2021/11/12 14:40:10;;;;;;;32.57;22.63;;;;;;;8.60;100.00;101123.44;21091796;27;20639;-79
2021/11/12 14:50:51;;;;;;;28.77;19.17;;;;;;;8.60;100.00;101142.03;21025629;27;20226;-79
2021/11/12 15:01:06;;;;;;;35.10;22.63;;;;;;;8.37;100.00;101115.56;21055637;28;20240;-79
2021/11/12 15:11:14;;;;;;;29.83;19.83;;;;;;;8.44;100.00;101133.00;21140860;28;20237;-79
2021/11/12 15:21:22;;;;;;;26.83;19.03;;;;;;;8.43;100.00;101158.75;21142051;28;20228;-79
2021/11/12 15:31:32;;;;;;;29.13;20.10;;;;;;;8.33;100.00;101140.59;21123619;28;20342;-79
2021/11/12 15:51:59;;;;;;;40.67;22.27;;;;;;;8.34;100.00;101158.25;21082596;28;20289;-79
2021/11/12 16:23:00;;;;;;;35.47;22.30;;;;;;;8.21;100.00;101172.00;21072407;28;20212;-79
2021/11/12 16:33:07;;;;;;;41.07;21.77;;;;;;;8.18;100.00;101171.28;21064550;28;20261;-80
2021/11/12 16:43:18;;;;;;;35.83;21.97;;;;;;;8.24;100.00;101179.88;21045760;28;20282;-80
2021/11/12 16:53:28;;;;;;;47.53;25.57;;;;;;;8.22;100.00;101184.38;21076932;28;20259;-79
2021/11/12 17:03:43;;;;;;;60.63;32.17;;;;;;;8.12;100.00;101177.69;21060101;28;20217;-79
2021/11/12 17:14:01;;;;;;;48.27;27.57;;;;;;;8.05;100.00;101188.66;20987295;28;20244;-78
2021/11/12 17:45:00;;;;;;;44.40;26.37;;;;;;;7.64;100.00;101161.91;21073328;28;20225;-79
2021/11/12 18:05:29;;;;;;;37.90;22.43;;;;;;;7.55;100.00;101146.34;21057362;28;20225;-78
2021/11/12 21:45:06;;;;;;;40.23;23.00;;;;;;;6.62;100.00;101082.59;21042923;27;20325;-67
2021/11/12 21:55:09;;;;;;;40.53;23.03;;;;;;;6.61;100.00;101068.47;20913942;28;20339;-65
2021/11/12 22:05:14;;;;;;;31.83;18.87;;;;;;;6.53;100.00;101072.31;20913817;28;20288;-66
2021/11/12 22:25:14;;;;;;;34.77;19.77;;;;;;;6.62;100.00;101066.69;21071671;27;20626;-66
2021/11/12 22:45:15;;;;;;;26.87;15.93;;;;;;;6.60;100.00;101053.47;21164573;27;21137;-57
2021/11/12 23:05:16;;;;;;;21.80;14.27;;;;;;;6.55;100.00;101033.34;21115332;27;20545;-63
2021/11/12 23:15:20;;;;;;;21.07;14.43;;;;;;;6.58;100.00;101034.09;21141948;28;20242;-56
2021/11/12 23:25:23;;;;;;;18.23;13.20;;;;;;;6.51;100.00;101032.63;21141231;28;20230;-65
2021/11/12 23:45:22;;;;;;;41.80;22.60;;;;;;;6.53;100.00;101020.13;20991898;27;2058751;-63
2021/11/12 23:55:25;;;;;;;34.73;20.80;;;;;;;6.51;100.00;101022.00;21060384;28;20234;-56
